createdAt,value
2017-06-30T04:00:39.722Z,97.09
2017-06-30T04:01:05.173Z,97.04
2017-06-30T04:01:30.680Z,96.75
2017-06-30T04:01:56.202Z,96.66
2017-06-30T04:02:21.636Z,96.94
2017-06-30T04:02:47.073Z,96.94
2017-06-30T04:03:12.541Z,96.94
2017-06-30T04:03:37.983Z,96.66
2017-06-30T04:04:03.435Z,96.94
2017-06-30T04:04:28.914Z,96.47
2017-06-30T04:04:54.344Z,96.75
2017-06-30T04:05:19.885Z,96.18
2017-06-30T04:05:45.309Z,96.94
2017-06-30T04:06:10.784Z,96.56
2017-06-30T04:06:36.248Z,96.08
2017-06-30T04:07:01.697Z,96.84
2017-06-30T04:07:27.158Z,96.18
2017-06-30T04:07:52.637Z,96.89
2017-06-30T04:08:18.084Z,96.08
2017-06-30T04:08:43.525Z,96.27
2017-06-30T04:09:09.003Z,96.18
2017-06-30T04:09:34.444Z,96.84
2017-06-30T04:09:59.895Z,96.66
2017-06-30T04:10:25.390Z,96.37
2017-06-30T04:10:50.809Z,96.75
2017-06-30T04:11:16.283Z,96.18
2017-06-30T04:11:41.784Z,96.47
2017-06-30T04:12:07.229Z,96.47
2017-06-30T04:12:32.720Z,96.66
2017-06-30T04:12:58.153Z,96.08
2017-06-30T04:13:23.576Z,96.37
2017-06-30T04:13:49.047Z,96.37
2017-06-30T04:14:14.519Z,95.89
2017-06-30T04:14:40.010Z,95.98
2017-06-30T04:15:05.481Z,96.18
2017-06-30T04:15:30.929Z,95.89
2017-06-30T04:15:56.468Z,95.89
2017-06-30T04:16:21.903Z,96.47
2017-06-30T04:16:47.373Z,95.89
2017-06-30T04:17:12.840Z,95.89
2017-06-30T04:17:38.326Z,96.56
2017-06-30T04:18:03.793Z,96.08
2017-06-30T04:18:29.201Z,96.37
2017-06-30T04:18:54.673Z,96.94
2017-06-30T04:19:20.139Z,96.18
2017-06-30T04:19:45.602Z,96.37
2017-06-30T04:20:11.056Z,95.89
2017-06-30T04:20:36.563Z,95.89
2017-06-30T04:21:02.018Z,96.18
2017-06-30T04:21:27.461Z,95.98
2017-06-30T04:21:52.944Z,95.79
2017-06-30T04:22:18.448Z,95.7
2017-06-30T04:22:43.853Z,95.7
2017-06-30T04:23:09.331Z,95.89
2017-06-30T04:23:34.794Z,96.18
2017-06-30T04:24:00.255Z,96.08
2017-06-30T04:24:25.737Z,96.08
2017-06-30T04:24:51.209Z,95.7
2017-06-30T04:25:16.677Z,96.08
2017-06-30T04:25:42.150Z,95.89
2017-06-30T04:26:07.633Z,95.79
2017-06-30T04:26:33.138Z,96.08
2017-06-30T04:26:58.583Z,95.89
2017-06-30T04:27:24.065Z,95.79
2017-06-30T04:27:49.506Z,95.89
2017-06-30T04:28:14.974Z,95.89
2017-06-30T04:28:40.454Z,96.18
2017-06-30T04:29:05.930Z,95.7
2017-06-30T04:29:31.394Z,95.89
2017-06-30T04:29:56.872Z,95.89
2017-06-30T04:30:22.326Z,95.7
2017-06-30T04:30:47.766Z,95.84
2017-06-30T04:31:13.255Z,95.94
2017-06-30T04:31:38.696Z,96.08
2017-06-30T04:32:04.165Z,96.08
2017-06-30T04:32:29.616Z,95.79
2017-06-30T04:32:55.077Z,95.79
2017-06-30T04:33:20.591Z,96.08
2017-06-30T04:33:46.048Z,95.89
2017-06-30T04:34:11.529Z,95.94
2017-06-30T04:34:36.954Z,95.98
2017-06-30T04:35:02.427Z,95.98
2017-06-30T04:35:27.863Z,96.08
2017-06-30T04:35:53.357Z,96.08
2017-06-30T04:36:18.819Z,95.65
2017-06-30T04:36:44.316Z,95.89
2017-06-30T04:37:09.773Z,95.6
2017-06-30T04:37:35.216Z,95.89
2017-06-30T04:38:00.699Z,95.89
2017-06-30T04:38:26.199Z,95.79
2017-06-30T04:38:51.758Z,95.89
2017-06-30T04:39:17.341Z,95.98
2017-06-30T04:39:42.779Z,95.31
2017-06-30T04:40:08.238Z,95.31
2017-06-30T04:40:33.702Z,95.41
2017-06-30T04:40:59.148Z,95.79
2017-06-30T04:41:24.638Z,95.6
2017-06-30T04:41:50.134Z,95.79
2017-06-30T04:42:15.579Z,95.41
2017-06-30T04:42:41.028Z,95.22
2017-06-30T04:43:06.534Z,95.79
2017-06-30T04:43:31.950Z,95.89
2017-06-30T04:43:57.419Z,95.75
2017-06-30T04:44:22.886Z,95.41
2017-06-30T04:44:48.358Z,95.03
2017-06-30T04:45:13.804Z,95.51
2017-06-30T04:45:39.309Z,95.51
2017-06-30T04:46:04.763Z,94.93
2017-06-30T04:46:30.199Z,95.22
2017-06-30T04:46:55.689Z,95.12
2017-06-30T04:47:21.153Z,95.84
2017-06-30T04:47:46.619Z,95.03
2017-06-30T04:48:12.085Z,94.93
2017-06-30T04:48:37.569Z,95.41
2017-06-30T04:49:02.978Z,95.31
2017-06-30T04:49:28.474Z,95.41
2017-06-30T04:49:53.922Z,95.31
2017-06-30T04:50:19.409Z,95.31
2017-06-30T04:50:44.873Z,95.41
2017-06-30T04:51:10.345Z,95.6
2017-06-30T04:51:35.829Z,96.08
2017-06-30T04:52:01.306Z,95.94
2017-06-30T04:52:26.777Z,95.41
2017-06-30T04:52:52.233Z,96.13
2017-06-30T04:53:17.712Z,95.84
2017-06-30T04:53:43.155Z,96.32
2017-06-30T04:54:08.607Z,96.22
2017-06-30T04:54:34.057Z,96.22
2017-06-30T04:54:59.545Z,95.65
2017-06-30T04:55:25.002Z,96.03
2017-06-30T04:55:50.441Z,96.13
2017-06-30T04:56:15.935Z,95.94
2017-06-30T04:56:41.396Z,96.13
2017-06-30T04:57:06.913Z,95.94
2017-06-30T04:57:32.362Z,96.22
2017-06-30T04:57:57.837Z,96.03
2017-06-30T04:58:23.291Z,96.22
2017-06-30T04:58:48.810Z,95.46
2017-06-30T04:59:14.250Z,95.36
2017-06-30T04:59:39.709Z,95.17
2017-06-30T05:00:05.173Z,95.46
2017-06-30T05:00:30.652Z,95.46
2017-06-30T05:00:56.119Z,95.75
2017-06-30T05:01:21.587Z,95.75
2017-06-30T05:01:47.062Z,95.65
2017-06-30T05:02:12.525Z,95.17
2017-06-30T05:02:38.001Z,95.84
2017-06-30T05:03:03.567Z,95.07
2017-06-30T05:03:29.318Z,95.26
2017-06-30T05:03:54.817Z,95.17
2017-06-30T05:04:20.283Z,95.26
2017-06-30T05:04:45.841Z,95.36
2017-06-30T05:05:11.278Z,95.17
2017-06-30T05:05:36.760Z,95.75
2017-06-30T05:06:02.228Z,95.56
2017-06-30T05:06:27.691Z,95.07
2017-06-30T05:06:53.149Z,95.17
2017-06-30T05:07:18.615Z,95.26
2017-06-30T05:07:44.064Z,95.07
2017-06-30T05:08:09.526Z,95.07
2017-06-30T05:08:35.005Z,95.07
2017-06-30T05:09:00.447Z,95.07
2017-06-30T05:09:25.940Z,95.26
2017-06-30T05:09:51.384Z,94.89
2017-06-30T05:10:16.847Z,95.07
2017-06-30T05:10:42.325Z,94.89
2017-06-30T05:11:07.800Z,95.07
2017-06-30T05:11:33.277Z,95.07
2017-06-30T05:11:58.746Z,95.26
2017-06-30T05:12:24.182Z,95.07
2017-06-30T05:12:49.659Z,95.07
2017-06-30T05:13:15.094Z,95.17
2017-06-30T05:13:40.587Z,95.26
2017-06-30T05:14:06.067Z,95.26
2017-06-30T05:14:31.554Z,95.46
2017-06-30T05:14:57.004Z,95.36
2017-06-30T05:15:22.469Z,94.89
2017-06-30T05:15:47.947Z,94.89
2017-06-30T05:16:13.399Z,95.26
2017-06-30T05:16:38.881Z,95.56
2017-06-30T05:17:04.354Z,95.17
2017-06-30T05:17:29.833Z,95.17
2017-06-30T05:17:55.288Z,94.89
2017-06-30T05:18:20.777Z,94.59
2017-06-30T05:18:46.222Z,94.59
2017-06-30T05:19:11.677Z,94.54
2017-06-30T05:19:37.192Z,94.59
2017-06-30T05:20:02.659Z,94.64
2017-06-30T05:20:28.143Z,94.54
2017-06-30T05:20:53.609Z,94.45
2017-06-30T05:21:19.118Z,94.54
2017-06-30T05:21:44.572Z,94.45
2017-06-30T05:22:10.027Z,94.74
2017-06-30T05:22:35.489Z,94.54
2017-06-30T05:23:00.969Z,94.26
2017-06-30T05:23:26.439Z,94.45
2017-06-30T05:23:51.929Z,94.26
2017-06-30T05:24:17.389Z,94.17
2017-06-30T05:24:42.871Z,94.45
2017-06-30T05:25:08.337Z,94.26
2017-06-30T05:25:33.810Z,94.35
2017-06-30T05:25:59.281Z,94.17
2017-06-30T05:26:24.766Z,93.88
2017-06-30T05:26:50.250Z,94.17
2017-06-30T05:27:15.702Z,93.97
2017-06-30T05:27:41.184Z,93.97
2017-06-30T05:28:06.646Z,94.45
2017-06-30T05:28:32.129Z,94.35
2017-06-30T05:28:57.574Z,94.54
2017-06-30T05:29:23.050Z,93.97
2017-06-30T05:29:48.515Z,93.97
2017-06-30T05:30:14.007Z,94.07
2017-06-30T05:30:39.465Z,94.07
2017-06-30T05:31:04.961Z,93.88
2017-06-30T05:31:30.409Z,94.45
2017-06-30T05:31:55.902Z,94.07
2017-06-30T05:32:21.349Z,93.97
2017-06-30T05:32:46.841Z,93.68
2017-06-30T05:33:12.284Z,93.88
2017-06-30T05:33:37.790Z,93.4
2017-06-30T05:34:03.237Z,93.59
2017-06-30T05:34:28.702Z,93.88
2017-06-30T05:34:54.190Z,93.78
2017-06-30T05:35:19.686Z,93.88
2017-06-30T05:35:45.143Z,93.4
2017-06-30T05:36:10.575Z,93.59
2017-06-30T05:36:36.047Z,93.88
2017-06-30T05:37:01.504Z,93.88
2017-06-30T05:37:26.957Z,93.78
2017-06-30T05:37:52.450Z,93.3
2017-06-30T05:38:17.899Z,93.59
2017-06-30T05:38:43.381Z,93.78
2017-06-30T05:39:08.834Z,93.88
2017-06-30T05:39:34.289Z,93.49
2017-06-30T05:39:59.774Z,93.21
2017-06-30T05:40:25.216Z,93.21
2017-06-30T05:40:50.743Z,93.68
2017-06-30T05:41:16.177Z,93.78
2017-06-30T05:41:41.645Z,93.4
2017-06-30T05:42:07.123Z,93.25
2017-06-30T05:42:32.583Z,93.4
2017-06-30T05:42:58.033Z,93.01
2017-06-30T05:43:23.493Z,93.3
2017-06-30T05:43:48.955Z,93.78
2017-06-30T05:44:14.405Z,93.63
2017-06-30T05:44:39.908Z,93.54
2017-06-30T05:45:05.375Z,93.44
2017-06-30T05:45:30.835Z,93.25
2017-06-30T05:45:56.307Z,93.54
2017-06-30T05:46:21.761Z,93.06
2017-06-30T05:46:47.242Z,93.06
2017-06-30T05:47:12.700Z,93.06
2017-06-30T05:47:38.192Z,93.15
2017-06-30T05:48:03.628Z,93.15
2017-06-30T05:48:29.081Z,93.35
2017-06-30T05:48:54.573Z,92.68
2017-06-30T05:49:20.015Z,92.48
2017-06-30T05:49:45.472Z,92.96
2017-06-30T05:50:10.952Z,92.68
2017-06-30T05:50:36.415Z,92.48
2017-06-30T05:51:01.885Z,92.86
2017-06-30T05:51:27.337Z,92.68
2017-06-30T05:51:52.811Z,92.58
2017-06-30T05:52:18.235Z,92.58
2017-06-30T05:52:43.699Z,92.68
2017-06-30T05:53:09.168Z,92.58
2017-06-30T05:53:34.628Z,92.58
2017-06-30T05:54:00.100Z,92.1
2017-06-30T05:54:25.555Z,92.58
2017-06-30T05:54:51.081Z,92.77
2017-06-30T05:55:16.527Z,93.06
2017-06-30T05:55:42.006Z,92.1
2017-06-30T05:56:07.476Z,91.91
2017-06-30T05:56:32.926Z,92
2017-06-30T05:56:58.368Z,92.19
2017-06-30T05:57:23.855Z,92.58
2017-06-30T05:57:49.296Z,91.81
2017-06-30T05:58:14.757Z,92
2017-06-30T05:58:40.196Z,91.72
2017-06-30T05:59:05.692Z,92
2017-06-30T05:59:31.122Z,91.24
2017-06-30T05:59:56.618Z,91.33
2017-06-30T06:00:22.058Z,90.66
2017-06-30T06:00:47.537Z,91.14
2017-06-30T06:01:12.974Z,91.09
2017-06-30T06:01:38.441Z,91.38
2017-06-30T06:02:03.915Z,91.09
2017-06-30T06:02:29.409Z,91.38
2017-06-30T06:02:54.814Z,91.38
2017-06-30T06:03:20.279Z,91.24
2017-06-30T06:03:45.735Z,90.7
2017-06-30T06:04:11.221Z,90.99
2017-06-30T06:04:36.688Z,90.7
2017-06-30T06:05:02.180Z,91.09
2017-06-30T06:05:27.620Z,90.9
2017-06-30T06:05:53.070Z,90.42
2017-06-30T06:06:18.547Z,90.03
2017-06-30T06:06:44.031Z,90.13
2017-06-30T06:07:09.457Z,90.32
2017-06-30T06:07:34.932Z,90.32
2017-06-30T06:08:00.409Z,90.22
2017-06-30T06:08:25.884Z,89.94
2017-06-30T06:08:51.316Z,90.03
2017-06-30T06:09:16.778Z,90.32
2017-06-30T06:09:42.292Z,90.03
2017-06-30T06:10:07.770Z,90.42
2017-06-30T06:10:33.209Z,90.32
2017-06-30T06:10:58.708Z,90.22
2017-06-30T06:11:24.201Z,90.03
2017-06-30T06:11:49.609Z,90.22
2017-06-30T06:12:15.095Z,90.52
2017-06-30T06:12:40.544Z,89.84
2017-06-30T06:13:06.006Z,89.94
2017-06-30T06:13:31.545Z,90.22
2017-06-30T06:13:56.980Z,89.94
2017-06-30T06:14:22.462Z,89.55
2017-06-30T06:14:47.987Z,89.98
2017-06-30T06:15:13.395Z,89.4
2017-06-30T06:15:38.831Z,89.79
2017-06-30T06:16:04.299Z,89.22
2017-06-30T06:16:29.766Z,89.6
2017-06-30T06:16:55.208Z,89.31
2017-06-30T06:17:20.695Z,89.22
2017-06-30T06:17:46.128Z,88.93
2017-06-30T06:18:11.589Z,89.22
2017-06-30T06:18:37.061Z,88.54
2017-06-30T06:19:02.556Z,88.54
2017-06-30T06:19:28.017Z,88.83
2017-06-30T06:19:53.479Z,88.25
2017-06-30T06:20:18.936Z,88.06
2017-06-30T06:20:44.406Z,87.96
2017-06-30T06:21:09.897Z,87.77
2017-06-30T06:21:35.378Z,88.25
2017-06-30T06:22:00.860Z,88.25
2017-06-30T06:22:26.301Z,88.45
2017-06-30T06:22:51.793Z,87.96
2017-06-30T06:23:17.311Z,87.96
2017-06-30T06:23:42.736Z,88.16
2017-06-30T06:24:08.193Z,88.06
2017-06-30T06:24:33.656Z,87.49
2017-06-30T06:24:59.136Z,87.49
2017-06-30T06:25:24.578Z,87.68
2017-06-30T06:25:50.078Z,87.01
2017-06-30T06:26:15.531Z,87.58
2017-06-30T06:26:41.009Z,87.29
2017-06-30T06:27:06.477Z,87.01
2017-06-30T06:27:31.945Z,87.39
2017-06-30T06:27:57.400Z,87.58
2017-06-30T06:28:22.866Z,87.39
2017-06-30T06:28:48.331Z,87.58
2017-06-30T06:29:13.777Z,87.49
2017-06-30T06:29:39.266Z,87.49
2017-06-30T06:30:04.753Z,87.19
2017-06-30T06:30:30.204Z,87.49
2017-06-30T06:30:55.662Z,87.29
2017-06-30T06:31:21.134Z,87.29
2017-06-30T06:31:46.593Z,87.29
2017-06-30T06:32:12.052Z,87.01
2017-06-30T06:32:37.535Z,87.01
2017-06-30T06:33:02.998Z,87.1
2017-06-30T06:33:28.495Z,87.19
2017-06-30T06:33:53.968Z,87.29
2017-06-30T06:34:19.427Z,86.33
2017-06-30T06:34:44.906Z,86.52
2017-06-30T06:35:10.359Z,86.38
2017-06-30T06:35:35.814Z,86.52
2017-06-30T06:36:01.298Z,86.38
2017-06-30T06:36:26.742Z,86.43
2017-06-30T06:36:52.206Z,86.38
2017-06-30T06:37:17.687Z,86.57
2017-06-30T06:37:43.191Z,86.38
2017-06-30T06:38:08.637Z,86.66
2017-06-30T06:38:34.112Z,86.24
2017-06-30T06:38:59.611Z,86.18
2017-06-30T06:39:25.141Z,85.61
2017-06-30T06:39:50.566Z,85.8
2017-06-30T06:40:16.028Z,86.09
2017-06-30T06:40:41.489Z,85.89
2017-06-30T06:41:06.971Z,85.99
2017-06-30T06:41:32.444Z,85.71
2017-06-30T06:41:57.883Z,85.13
2017-06-30T06:42:23.318Z,85.13
2017-06-30T06:42:48.789Z,85.71
2017-06-30T06:43:14.283Z,85.51
2017-06-30T06:43:39.738Z,85.41
2017-06-30T06:44:05.209Z,85.51
2017-06-30T06:44:30.690Z,85.32
2017-06-30T06:44:56.151Z,85.8
2017-06-30T06:45:21.689Z,85.89
2017-06-30T06:45:47.162Z,85.71
2017-06-30T06:46:12.623Z,85.8
2017-06-30T06:46:38.065Z,85.51
2017-06-30T06:47:03.533Z,85.61
2017-06-30T06:47:29.018Z,84.45
2017-06-30T06:47:54.453Z,84.45
2017-06-30T06:48:19.941Z,84.45
2017-06-30T06:48:45.415Z,84.36
2017-06-30T06:49:10.843Z,84.26
2017-06-30T06:49:36.312Z,84.45
2017-06-30T06:50:01.770Z,83.69
2017-06-30T06:50:27.261Z,83.78
2017-06-30T06:50:52.697Z,83.59
2017-06-30T06:51:18.163Z,83.49
2017-06-30T06:51:43.655Z,83.4
2017-06-30T06:52:09.134Z,83.4
2017-06-30T06:52:34.597Z,83.4
2017-06-30T06:53:00.078Z,83.01
2017-06-30T06:53:25.530Z,82.92
2017-06-30T06:53:50.993Z,83.34
2017-06-30T06:54:16.480Z,83.44
2017-06-30T06:54:41.933Z,83.44
2017-06-30T06:55:07.366Z,83.34
2017-06-30T06:55:32.829Z,82.86
2017-06-30T06:55:58.299Z,83.06
2017-06-30T06:56:23.757Z,82.86
2017-06-30T06:56:49.183Z,82.38
2017-06-30T06:57:14.688Z,82.09
2017-06-30T06:57:40.122Z,82.57
2017-06-30T06:58:05.595Z,82.57
2017-06-30T06:58:31.033Z,81.9
2017-06-30T06:58:56.492Z,81.9
2017-06-30T06:59:21.960Z,81.99
2017-06-30T06:59:47.424Z,82.29
2017-06-30T07:00:12.911Z,82.19
2017-06-30T07:00:38.387Z,82.19
2017-06-30T07:01:03.869Z,81.9
2017-06-30T07:01:29.341Z,81.52
2017-06-30T07:01:54.825Z,81.23
2017-06-30T07:02:20.286Z,81.13
2017-06-30T07:02:45.712Z,81.13
2017-06-30T07:03:11.169Z,81.04
2017-06-30T07:03:36.642Z,80.84
2017-06-30T07:04:02.098Z,81.13
2017-06-30T07:04:27.577Z,81.42
2017-06-30T07:04:53.025Z,81.23
2017-06-30T07:05:18.487Z,81.42
2017-06-30T07:05:43.957Z,80.55
2017-06-30T07:06:09.433Z,80.36
2017-06-30T07:06:34.888Z,80.94
2017-06-30T07:07:00.376Z,80.65
2017-06-30T07:07:25.874Z,80.65
2017-06-30T07:07:51.320Z,80.65
2017-06-30T07:08:16.797Z,80.46
2017-06-30T07:08:42.264Z,80.65
2017-06-30T07:09:07.772Z,80.65
2017-06-30T07:09:33.222Z,80.94
2017-06-30T07:09:58.682Z,80.65
2017-06-30T07:10:24.125Z,80.65
2017-06-30T07:10:49.742Z,81.13
2017-06-30T07:11:15.188Z,81.23
2017-06-30T07:11:40.663Z,81.32
2017-06-30T07:12:06.087Z,81.13
2017-06-30T07:12:31.572Z,81.04
2017-06-30T07:12:57.071Z,80.46
2017-06-30T07:13:22.520Z,80.36
2017-06-30T07:13:47.985Z,80.55
2017-06-30T07:14:13.451Z,80.36
2017-06-30T07:14:38.930Z,80.07
2017-06-30T07:15:04.401Z,80.07
2017-06-30T07:15:29.863Z,80.65
2017-06-30T07:15:55.315Z,80.17
2017-06-30T07:16:20.794Z,79.88
2017-06-30T07:16:46.253Z,79.98
2017-06-30T07:17:11.711Z,80.75
2017-06-30T07:17:37.202Z,80.65
2017-06-30T07:18:02.660Z,80.94
2017-06-30T07:18:28.139Z,80.46
2017-06-30T07:18:53.648Z,80.55
2017-06-30T07:19:19.129Z,80.36
2017-06-30T07:19:44.601Z,80.94
2017-06-30T07:20:10.055Z,80.94
2017-06-30T07:20:35.566Z,80.84
2017-06-30T07:21:01.064Z,80.36
2017-06-30T07:21:26.511Z,80.36
2017-06-30T07:21:51.988Z,80.75
2017-06-30T07:22:17.469Z,80.75
2017-06-30T07:22:42.900Z,80.17
2017-06-30T07:23:08.369Z,80.75
2017-06-30T07:23:33.885Z,80.46
2017-06-30T07:23:59.367Z,80.46
2017-06-30T07:24:25.084Z,80.46
2017-06-30T07:24:50.570Z,80.17
2017-06-30T07:25:16.042Z,80.94
2017-06-30T07:25:41.533Z,80.75
2017-06-30T07:26:07.084Z,80.46
2017-06-30T07:26:32.561Z,80.46
2017-06-30T07:26:58.029Z,80.84
2017-06-30T07:27:23.460Z,81.32
2017-06-30T07:27:48.949Z,81.42
2017-06-30T07:28:14.393Z,80.46
2017-06-30T07:28:39.863Z,80.75
2017-06-30T07:29:05.342Z,80.55
2017-06-30T07:29:30.814Z,80.17
2017-06-30T07:29:56.273Z,80.07
2017-06-30T07:30:21.788Z,79.98
2017-06-30T07:30:47.221Z,80.46
2017-06-30T07:31:12.721Z,80.84
2017-06-30T07:31:38.184Z,80.55
2017-06-30T07:32:03.852Z,80.36
2017-06-30T07:32:29.978Z,80.75
2017-06-30T07:32:55.450Z,80.17
2017-06-30T07:33:20.923Z,80.55
2017-06-30T07:33:46.422Z,80.27
2017-06-30T07:34:11.897Z,80.94
2017-06-30T07:34:37.352Z,80.75
2017-06-30T07:35:02.819Z,80.17
2017-06-30T07:35:28.311Z,80.55
2017-06-30T07:35:53.783Z,80.65
2017-06-30T07:36:19.257Z,80.75
2017-06-30T07:36:44.719Z,80.65
2017-06-30T07:37:10.193Z,80.65
2017-06-30T07:37:35.641Z,80.46
2017-06-30T07:38:01.150Z,80.94
2017-06-30T07:38:26.651Z,80.84
2017-06-30T07:38:52.124Z,80.55
2017-06-30T07:39:17.584Z,80.65
2017-06-30T07:39:43.066Z,80.55
2017-06-30T07:40:08.559Z,80.36
2017-06-30T07:40:34.256Z,80.46
2017-06-30T07:40:59.838Z,81.04
2017-06-30T07:41:25.358Z,81.13
2017-06-30T07:41:50.844Z,81.13
2017-06-30T07:42:16.324Z,81.52
2017-06-30T07:42:41.756Z,81.52
2017-06-30T07:43:07.213Z,81.52
2017-06-30T07:43:32.685Z,81.48
2017-06-30T07:43:58.174Z,81.71
2017-06-30T07:44:23.654Z,81.96
2017-06-30T07:44:49.117Z,82.05
2017-06-30T07:45:14.601Z,81.28
2017-06-30T07:45:40.057Z,82.05
2017-06-30T07:46:05.631Z,81.76
2017-06-30T07:46:31.161Z,82.24
2017-06-30T07:46:56.610Z,82.43
2017-06-30T07:47:22.031Z,81.96
2017-06-30T07:47:47.468Z,81.86
2017-06-30T07:48:12.934Z,82.15
2017-06-30T07:48:38.407Z,82.24
2017-06-30T07:49:03.873Z,82.34
2017-06-30T07:49:29.343Z,82.73
2017-06-30T07:49:54.820Z,82.82
2017-06-30T07:50:20.365Z,82.43
2017-06-30T07:50:45.823Z,82.43
2017-06-30T07:51:11.392Z,82.15
2017-06-30T07:51:36.875Z,82.92
2017-06-30T07:52:02.321Z,83.01
2017-06-30T07:52:27.792Z,83.45
2017-06-30T07:52:53.255Z,83.49
2017-06-30T07:53:18.797Z,83.49
2017-06-30T07:53:44.365Z,84.12
2017-06-30T07:54:09.936Z,84.22
2017-06-30T07:54:35.548Z,84.22
2017-06-30T07:55:01.031Z,84.41
2017-06-30T07:55:26.501Z,84.8
2017-06-30T07:55:52.010Z,85.08
2017-06-30T07:56:17.611Z,84.99
2017-06-30T07:56:43.118Z,85.18
2017-06-30T07:57:08.763Z,85.47
2017-06-30T07:57:34.217Z,85.47
2017-06-30T07:57:59.666Z,86.14
2017-06-30T07:58:25.129Z,86.24
2017-06-30T07:58:50.636Z,85.28
2017-06-30T07:59:16.075Z,86.24
2017-06-30T07:59:41.524Z,86.24
2017-06-30T08:00:06.984Z,86.05
2017-06-30T08:00:32.445Z,86.52
2017-06-30T08:00:57.935Z,86.52
2017-06-30T08:01:23.397Z,86.52
2017-06-30T08:01:49.002Z,86.81
2017-06-30T08:02:14.498Z,86.43
2017-06-30T08:02:39.964Z,87.01
2017-06-30T08:03:05.436Z,86.87
2017-06-30T08:03:30.910Z,87.73
2017-06-30T08:03:56.376Z,87.54
2017-06-30T08:04:21.819Z,88.21
2017-06-30T08:04:47.308Z,88.31
2017-06-30T08:05:12.784Z,88.69
2017-06-30T08:05:38.304Z,89.26
2017-06-30T08:06:03.746Z,89.26
2017-06-30T08:06:29.221Z,89.65
2017-06-30T08:06:54.700Z,90.03
2017-06-30T08:07:20.156Z,90.03
2017-06-30T08:07:45.642Z,90.61
2017-06-30T08:08:11.077Z,90.32
2017-06-30T08:08:36.547Z,90.7
2017-06-30T08:09:02.028Z,90.8
2017-06-30T08:09:27.541Z,90.7
2017-06-30T08:09:52.953Z,91.19
2017-06-30T08:10:18.430Z,91.28
2017-06-30T08:10:43.917Z,91.38
2017-06-30T08:11:09.367Z,91.24
2017-06-30T08:11:34.889Z,91.05
2017-06-30T08:12:00.299Z,91.52
2017-06-30T08:12:25.776Z,91.57
2017-06-30T08:12:51.228Z,91.38
2017-06-30T08:13:16.698Z,91.28
2017-06-30T08:13:42.145Z,91.24
2017-06-30T08:14:07.639Z,91.42
2017-06-30T08:14:33.117Z,91.52
2017-06-30T08:14:58.602Z,90.85
2017-06-30T08:15:24.032Z,91.24
2017-06-30T08:15:49.497Z,91.14
2017-06-30T08:16:14.973Z,91.42
2017-06-30T08:16:40.422Z,92
2017-06-30T08:17:05.915Z,91.72
2017-06-30T08:17:31.372Z,92
2017-06-30T08:17:56.849Z,92.1
2017-06-30T08:18:22.315Z,91.91
2017-06-30T08:18:47.798Z,91.62
2017-06-30T08:19:13.253Z,91.96
2017-06-30T08:19:38.753Z,91.72
2017-06-30T08:20:04.192Z,91.91
2017-06-30T08:20:29.708Z,91.38
2017-06-30T08:20:55.151Z,92.05
2017-06-30T08:21:20.626Z,92
2017-06-30T08:21:46.089Z,91.96
2017-06-30T08:22:11.581Z,91.57
2017-06-30T08:22:37.021Z,92.05
2017-06-30T08:23:02.542Z,92.53
2017-06-30T08:23:28.012Z,91.57
2017-06-30T08:23:53.469Z,91.76
2017-06-30T08:24:18.946Z,91.57
2017-06-30T08:24:44.447Z,91.47
2017-06-30T08:25:09.930Z,91.76
2017-06-30T08:25:35.398Z,91.47
2017-06-30T08:26:00.855Z,91.86
2017-06-30T08:26:26.341Z,91.96
2017-06-30T08:26:51.814Z,91.96
2017-06-30T08:27:17.261Z,91.57
2017-06-30T08:27:42.748Z,91.47
2017-06-30T08:28:08.220Z,91.19
2017-06-30T08:28:33.676Z,91.19
2017-06-30T08:28:59.111Z,91.47
2017-06-30T08:29:24.585Z,91.09
2017-06-30T08:29:50.021Z,90.32
2017-06-30T08:30:15.498Z,90.9
2017-06-30T08:30:40.951Z,90.8
2017-06-30T08:31:06.413Z,91.38
2017-06-30T08:31:31.905Z,91.19
2017-06-30T08:31:57.370Z,90.22
2017-06-30T08:32:22.814Z,90.03
2017-06-30T08:32:48.260Z,90.13
2017-06-30T08:33:13.717Z,90.13
2017-06-30T08:33:39.201Z,89.89
2017-06-30T08:34:04.649Z,90.27
2017-06-30T08:34:30.111Z,90.08
2017-06-30T08:34:55.577Z,90.27
2017-06-30T08:35:21.105Z,90.46
2017-06-30T08:35:46.559Z,89.98
2017-06-30T08:36:12.032Z,89.6
2017-06-30T08:36:37.486Z,89.69
2017-06-30T08:37:02.946Z,89.79
2017-06-30T08:37:28.412Z,89.5
2017-06-30T08:37:53.876Z,89.31
2017-06-30T08:38:19.341Z,89.22
2017-06-30T08:38:44.824Z,89.93
2017-06-30T08:39:10.306Z,89.02
2017-06-30T08:39:35.768Z,89.26
2017-06-30T08:40:01.545Z,89.26
2017-06-30T08:40:27.118Z,89.16
2017-06-30T08:40:52.579Z,88.97
2017-06-30T08:41:18.059Z,88.2
2017-06-30T08:41:43.527Z,87.82
2017-06-30T08:42:08.985Z,88.1
2017-06-30T08:42:34.451Z,88.44
2017-06-30T08:42:59.912Z,88.01
2017-06-30T08:43:25.396Z,87.34
2017-06-30T08:43:50.848Z,87.57
2017-06-30T08:44:16.342Z,87.38
2017-06-30T08:44:41.785Z,87.38
2017-06-30T08:45:07.259Z,86.99
2017-06-30T08:45:32.739Z,86.42
2017-06-30T08:45:58.218Z,86.52
2017-06-30T08:46:23.671Z,86.32
2017-06-30T08:46:49.150Z,85.55
2017-06-30T08:47:14.599Z,85.94
2017-06-30T08:47:40.074Z,86.13
2017-06-30T08:48:05.569Z,86.22
2017-06-30T08:48:31.019Z,84.3
2017-06-30T08:48:56.508Z,83.96
2017-06-30T08:49:21.966Z,83.77
2017-06-30T08:49:47.455Z,83.96
2017-06-30T08:50:12.921Z,83.58
2017-06-30T08:50:38.403Z,82.14
2017-06-30T08:51:03.889Z,83
2017-06-30T08:51:29.357Z,83
2017-06-30T08:51:54.812Z,82.42
2017-06-30T08:52:20.289Z,82.32
2017-06-30T08:52:45.780Z,82.81
2017-06-30T08:53:11.244Z,83
2017-06-30T08:53:36.691Z,83.39
2017-06-30T08:54:02.173Z,82.81
2017-06-30T08:54:27.599Z,82.81
2017-06-30T08:54:53.071Z,83
2017-06-30T08:55:18.556Z,82.42
2017-06-30T08:55:44.078Z,82.32
2017-06-30T08:56:09.479Z,82.23
2017-06-30T08:56:34.947Z,81.98
2017-06-30T08:57:00.404Z,82.14
2017-06-30T08:57:25.863Z,81.5
2017-06-30T08:57:51.357Z,81.4
2017-06-30T08:58:16.846Z,80.25
2017-06-30T08:58:42.292Z,80.15
2017-06-30T08:59:07.734Z,80.63
2017-06-30T08:59:33.222Z,80.25
2017-06-30T08:59:58.688Z,80.63
2017-06-30T09:00:24.159Z,80.54
2017-06-30T09:00:49.630Z,79.9
2017-06-30T09:01:15.085Z,79.61
2017-06-30T09:01:40.562Z,79.33
2017-06-30T09:02:06.025Z,79.33
2017-06-30T09:02:31.487Z,79.23
2017-06-30T09:02:56.964Z,79.33
2017-06-30T09:03:22.430Z,80.1
2017-06-30T09:03:47.940Z,79.23
2017-06-30T09:04:13.413Z,79.13
2017-06-30T09:04:38.872Z,78.27
2017-06-30T09:05:04.333Z,78.08
2017-06-30T09:05:29.781Z,78.17
2017-06-30T09:05:55.243Z,77.69
2017-06-30T09:06:20.739Z,77.5
2017-06-30T09:06:46.168Z,78.21
2017-06-30T09:07:11.644Z,78.08
2017-06-30T09:07:37.109Z,78.11
2017-06-30T09:08:02.575Z,78.21
2017-06-30T09:08:28.030Z,78.02
2017-06-30T09:08:53.471Z,78.02
2017-06-30T09:09:18.977Z,77.44
2017-06-30T09:09:44.408Z,77.34
2017-06-30T09:10:09.905Z,77.92
2017-06-30T09:10:35.356Z,77.92
2017-06-30T09:11:00.855Z,77.53
2017-06-30T09:11:26.298Z,77.34
2017-06-30T09:11:51.782Z,77.44
2017-06-30T09:12:17.262Z,76.67
2017-06-30T09:12:42.687Z,76.67
2017-06-30T09:13:08.155Z,76.67
2017-06-30T09:13:33.642Z,77.15
2017-06-30T09:13:59.103Z,76.09
2017-06-30T09:14:24.555Z,75.32
2017-06-30T09:14:50.045Z,75.51
2017-06-30T09:15:15.521Z,75.8
2017-06-30T09:15:41.019Z,76.09
2017-06-30T09:16:06.517Z,76.61
2017-06-30T09:16:31.982Z,75.93
2017-06-30T09:16:57.410Z,75.36
2017-06-30T09:17:22.872Z,75.45
2017-06-30T09:17:48.337Z,75.36
2017-06-30T09:18:13.781Z,75.36
2017-06-30T09:18:39.250Z,75.65
2017-06-30T09:19:04.708Z,76.03
2017-06-30T09:19:30.193Z,75.93
2017-06-30T09:19:55.660Z,75.55
2017-06-30T09:20:21.147Z,75.36
2017-06-30T09:20:46.631Z,75.36
2017-06-30T09:21:12.106Z,75.84
2017-06-30T09:21:37.582Z,74.1
2017-06-30T09:22:03.055Z,73.24
2017-06-30T09:22:28.513Z,73.62
2017-06-30T09:22:53.957Z,74.01
2017-06-30T09:23:19.433Z,73.62
2017-06-30T09:23:44.902Z,73.14
2017-06-30T09:24:10.364Z,73.82
2017-06-30T09:24:35.829Z,73.53
2017-06-30T09:25:01.314Z,73.33
2017-06-30T09:25:26.764Z,73.05
2017-06-30T09:25:52.254Z,73.24
2017-06-30T09:26:17.743Z,73.24
2017-06-30T09:26:43.181Z,73.14
2017-06-30T09:27:08.648Z,72.85
2017-06-30T09:27:34.127Z,73.05
2017-06-30T09:27:59.586Z,72.85
2017-06-30T09:28:25.076Z,73.53
2017-06-30T09:28:50.574Z,73.53
2017-06-30T09:29:15.990Z,73.62
2017-06-30T09:29:41.451Z,73.62